createdAt,value
2018-02-21T00:01:34.042Z,22.80
2018-02-21T00:04:02.267Z,22.83
2018-02-21T00:06:30.460Z,23.77
2018-02-21T00:08:58.648Z,22.57
2018-02-21T00:11:26.826Z,25.20
2018-02-21T00:13:55.005Z,22.50
2018-02-21T00:16:23.173Z,26.03
2018-02-21T00:18:51.347Z,24.23
2018-02-21T00:21:19.542Z,27.37
2018-02-21T00:23:47.710Z,24.20
2018-02-21T00:26:15.909Z,25.33
2018-02-21T00:28:44.099Z,22.77
2018-02-21T00:31:13.044Z,22.83
2018-02-21T00:33:41.274Z,24.03
2018-02-21T00:36:10.231Z,25.20
2018-02-21T00:38:38.404Z,23.40
2018-02-21T00:41:06.588Z,17.33
2018-02-21T00:43:34.791Z,18.43
2018-02-21T00:46:03.718Z,19.50
2018-02-21T00:48:31.896Z,18.67
2018-02-21T00:51:00.900Z,18.80
2018-02-21T00:53:29.101Z,16.97
2018-02-21T00:55:57.279Z,15.00
2018-02-21T00:58:25.482Z,16.60
2018-02-21T01:00:53.663Z,15.03
2018-02-21T01:03:21.838Z,13.77
2018-02-21T01:05:50.011Z,14.77
2018-02-21T01:08:18.214Z,15.07
2018-02-21T01:10:46.406Z,17.47
2018-02-21T01:13:14.577Z,18.23
2018-02-21T01:15:42.882Z,19.63
2018-02-21T01:18:11.062Z,19.30
2018-02-21T01:20:40.032Z,17.67
2018-02-21T01:23:08.208Z,26.70
2018-02-21T01:25:36.418Z,34.10
2018-02-21T01:28:05.374Z,33.60
2018-02-21T01:30:33.561Z,34.87
2018-02-21T01:33:01.739Z,34.50
2018-02-21T01:35:29.930Z,35.90
2018-02-21T01:37:58.873Z,35.13
2018-02-21T01:40:27.053Z,38.37
2018-02-21T01:42:55.272Z,39.47
2018-02-21T01:45:24.209Z,35.70
2018-02-21T01:47:52.386Z,40.53
2018-02-21T01:50:20.602Z,36.80
2018-02-21T01:52:48.824Z,39.33
2018-02-21T01:55:17.003Z,36.60
2018-02-21T01:57:45.209Z,36.90
2018-02-21T02:00:14.265Z,37.00
2018-02-21T02:02:42.442Z,36.80
2018-02-21T02:05:10.627Z,35.80
2018-02-21T02:07:38.822Z,36.67
2018-02-21T02:10:07.024Z,35.50
2018-02-21T02:12:36.004Z,36.60
2018-02-21T02:15:04.166Z,38.90
2018-02-21T02:17:32.362Z,35.70
2018-02-21T02:20:00.578Z,35.60
2018-02-21T02:22:28.739Z,35.40
2018-02-21T02:24:56.911Z,37.73
2018-02-21T02:27:25.876Z,37.90
2018-02-21T02:29:54.060Z,35.87
2018-02-21T02:32:23.015Z,37.07
2018-02-21T02:34:51.176Z,35.90
2018-02-21T02:37:19.342Z,34.57
2018-02-21T02:40:07.110Z,34.37
2018-02-21T02:42:35.316Z,34.90
2018-02-21T02:45:04.325Z,34.83
2018-02-21T02:47:32.499Z,34.50
2018-02-21T02:50:00.679Z,34.60
2018-02-21T02:52:28.853Z,34.67
2018-02-21T02:54:57.014Z,34.60
2018-02-21T02:57:25.967Z,32.30
2018-02-21T02:59:54.192Z,36.17
2018-02-21T03:02:22.401Z,37.10
2018-02-21T03:04:50.574Z,34.30
2018-02-21T03:07:18.756Z,35.63
2018-02-21T03:09:47.937Z,35.00
2018-02-21T03:12:16.108Z,34.30
2018-02-21T03:14:44.290Z,34.57
2018-02-21T03:17:12.473Z,34.10
2018-02-21T03:19:40.639Z,32.83
2018-02-21T03:22:08.810Z,32.97
2018-02-21T03:24:37.029Z,36.60
2018-02-21T03:27:05.262Z,32.50
2018-02-21T03:29:33.457Z,32.20
2018-02-21T03:32:01.626Z,34.20
2018-02-21T03:34:29.792Z,35.40
2018-02-21T03:36:58.782Z,33.13
2018-02-21T03:39:26.943Z,32.97
2018-02-21T03:41:55.129Z,34.10
2018-02-21T03:44:23.322Z,30.90
2018-02-21T03:46:51.506Z,32.07
2018-02-21T03:49:19.672Z,31.50
2018-02-21T03:51:47.906Z,29.53
2018-02-21T03:54:16.122Z,29.27
2018-02-21T03:56:44.283Z,28.77
2018-02-21T03:59:12.454Z,28.90
2018-02-21T04:01:40.613Z,29.73
2018-02-21T04:04:08.984Z,29.80
2018-02-21T04:06:37.162Z,28.97
2018-02-21T04:09:05.371Z,29.93
2018-02-21T04:11:33.538Z,30.33
2018-02-21T04:14:01.715Z,30.93
2018-02-21T04:16:29.879Z,31.53
2018-02-21T04:19:00.862Z,29.47
2018-02-21T04:21:29.072Z,32.03
2018-02-21T04:23:57.244Z,30.57
2018-02-21T04:26:25.418Z,33.33
2018-02-21T04:28:53.591Z,30.73
2018-02-21T04:31:21.765Z,33.80
2018-02-21T04:33:50.687Z,32.50
2018-02-21T04:36:18.881Z,30.97
2018-02-21T04:38:48.062Z,32.87
2018-02-21T04:41:16.269Z,28.83
2018-02-21T04:43:44.434Z,31.87
2018-02-21T04:46:12.657Z,28.43
2018-02-21T04:48:40.833Z,30.67
2018-02-21T04:51:09.029Z,28.33
2018-02-21T04:53:37.233Z,28.70
2018-02-21T04:56:24.017Z,26.50
2018-02-21T04:58:52.919Z,26.35
2018-02-21T05:01:21.148Z,26.90
2018-02-21T05:03:50.083Z,29.12
2018-02-21T05:06:18.253Z,27.30
2018-02-21T05:08:46.429Z,27.47
2018-02-21T05:11:14.587Z,27.97
2018-02-21T05:13:42.757Z,28.53
2018-02-21T05:16:10.933Z,28.40
2018-02-21T05:18:39.917Z,28.77
2018-02-21T05:21:08.094Z,26.97
2018-02-21T05:23:36.262Z,29.17
2018-02-21T05:26:04.475Z,29.80
2018-02-21T05:28:32.675Z,27.60
2018-02-21T05:31:00.843Z,27.17
2018-02-21T05:33:29.016Z,28.87
2018-02-21T05:35:57.199Z,27.83
2018-02-21T05:38:25.365Z,27.93
2018-02-21T05:40:53.543Z,27.77
2018-02-21T05:43:21.719Z,29.43
2018-02-21T05:45:49.882Z,29.40
2018-02-21T05:48:18.053Z,28.10
2018-02-21T05:50:46.225Z,27.57
2018-02-21T05:53:16.044Z,27.33
2018-02-21T05:55:44.239Z,26.13
2018-02-21T05:58:12.407Z,26.30
2018-02-21T06:00:40.589Z,26.50
2018-02-21T06:03:08.761Z,26.23
2018-02-21T06:05:36.941Z,24.40
2018-02-21T06:08:05.101Z,24.57
2018-02-21T06:10:33.266Z,27.30
2018-02-21T06:13:01.446Z,22.43
2018-02-21T06:15:29.619Z,22.17
2018-02-21T06:17:57.786Z,23.77
2018-02-21T06:20:25.984Z,22.23
2018-02-21T06:22:54.151Z,22.57
2018-02-21T06:25:22.327Z,18.27
2018-02-21T06:27:50.787Z,20.93
2018-02-21T06:30:18.987Z,20.90
2018-02-21T06:32:47.175Z,20.50
2018-02-21T06:35:15.330Z,21.30
2018-02-21T06:37:43.559Z,19.77
2018-02-21T06:40:11.730Z,19.80
2018-02-21T06:42:39.899Z,21.80
2018-02-21T06:45:08.094Z,19.90
2018-02-21T06:47:36.318Z,20.00
2018-02-21T06:50:05.312Z,19.83
2018-02-21T06:52:33.511Z,20.20
2018-02-21T06:55:02.516Z,21.20
2018-02-21T06:57:30.702Z,20.13
2018-02-21T06:59:58.926Z,17.10
2018-02-21T07:02:35.822Z,18.40
2018-02-21T07:05:04.789Z,17.13
2018-02-21T07:07:32.966Z,16.07
2018-02-21T07:10:01.138Z,18.17
2018-02-21T07:12:29.303Z,16.63
2018-02-21T07:14:57.491Z,16.07
2018-02-21T07:17:25.711Z,16.30
2018-02-21T07:19:53.925Z,15.07
2018-02-21T07:22:22.137Z,21.87
2018-02-21T07:24:51.066Z,15.30
2018-02-21T07:27:19.278Z,15.90
2018-02-21T07:29:47.527Z,13.73
2018-02-21T07:32:15.707Z,13.50
2018-02-21T07:34:43.875Z,15.07
2018-02-21T07:37:12.061Z,13.40
2018-02-21T07:39:40.262Z,15.27
2018-02-21T07:42:08.462Z,13.10
2018-02-21T07:44:37.429Z,13.80
2018-02-21T07:47:05.595Z,16.03
2018-02-21T07:49:33.765Z,14.63
2018-02-21T07:52:02.003Z,15.20
2018-02-21T07:54:30.193Z,14.50
2018-02-21T07:56:58.357Z,15.93
2018-02-21T07:59:26.584Z,17.23
2018-02-21T08:01:54.748Z,15.20
2018-02-21T08:04:22.936Z,15.83
2018-02-21T08:06:51.154Z,15.03
2018-02-21T08:09:19.321Z,13.90
2018-02-21T08:11:47.488Z,15.67
2018-02-21T08:14:16.430Z,14.80
2018-02-21T08:16:44.635Z,15.90
2018-02-21T08:19:12.824Z,15.57
2018-02-21T08:21:41.784Z,14.80
2018-02-21T08:24:09.992Z,15.87
2018-02-21T08:26:38.992Z,26.77
2018-02-21T08:29:07.937Z,29.50
2018-02-21T08:31:36.143Z,34.83
2018-02-21T08:34:05.095Z,36.27
2018-02-21T08:36:33.407Z,34.10
2018-02-21T08:39:02.368Z,33.60
2018-02-21T08:41:30.562Z,35.57
2018-02-21T08:43:58.813Z,36.40
2018-02-21T08:46:27.007Z,37.33
2018-02-21T08:48:55.248Z,37.67
2018-02-21T08:51:23.466Z,37.83
2018-02-21T08:53:51.725Z,36.07
2018-02-21T08:56:19.945Z,38.70
2018-02-21T08:58:48.946Z,35.70
2018-02-21T09:01:17.165Z,40.13
2018-02-21T09:03:45.392Z,36.63
2018-02-21T09:06:14.361Z,36.20
2018-02-21T09:08:42.583Z,31.90
2018-02-21T09:11:10.796Z,33.27
2018-02-21T09:13:38.999Z,36.80
2018-02-21T09:16:07.993Z,34.03
2018-02-21T09:18:36.236Z,31.23
2018-02-21T09:21:04.441Z,32.03
2018-02-21T09:23:32.642Z,29.60
2018-02-21T09:26:00.872Z,34.47
2018-02-21T09:28:29.113Z,29.37
2018-02-21T09:30:57.319Z,31.30
2018-02-21T09:33:25.576Z,29.20
2018-02-21T09:35:53.758Z,28.47
2018-02-21T09:38:21.964Z,29.00
2018-02-21T09:40:50.215Z,29.97
2018-02-21T09:43:18.389Z,34.80
2018-02-21T09:45:46.585Z,31.53
2018-02-21T09:48:14.766Z,33.53
2018-02-21T09:50:43.013Z,35.07
2018-02-21T09:53:11.273Z,35.33
2018-02-21T09:55:39.451Z,32.80
2018-02-21T09:58:07.657Z,32.63
2018-02-21T10:00:35.845Z,34.60
2018-02-21T10:03:04.024Z,34.50
2018-02-21T10:05:32.209Z,34.40
2018-02-21T10:08:01.174Z,32.80
2018-02-21T10:10:29.348Z,34.57
2018-02-21T10:12:57.517Z,32.50
2018-02-21T10:15:25.759Z,35.53
2018-02-21T10:17:53.993Z,36.97
2018-02-21T10:20:22.279Z,32.00
2018-02-21T10:22:51.265Z,33.23
2018-02-21T10:25:20.225Z,30.77
2018-02-21T10:27:48.408Z,32.20
2018-02-21T10:30:16.620Z,32.80
2018-02-21T10:32:45.557Z,32.40
2018-02-21T10:35:13.762Z,32.13
2018-02-21T10:37:41.938Z,31.27
2018-02-21T10:40:10.098Z,31.90
2018-02-21T10:42:38.274Z,31.80
2018-02-21T10:45:06.438Z,30.93
2018-02-21T10:47:34.605Z,31.27
2018-02-21T10:50:02.807Z,29.13
2018-02-21T10:52:30.977Z,31.93
2018-02-21T10:54:59.155Z,31.70
2018-02-21T10:57:27.320Z,30.90
2018-02-21T10:59:55.496Z,29.60
2018-02-21T11:02:23.666Z,36.70
2018-02-21T11:04:51.855Z,30.83
2018-02-21T11:07:20.019Z,29.00
2018-02-21T11:09:48.197Z,30.10
2018-02-21T11:12:16.381Z,30.00
2018-02-21T11:14:44.562Z,29.50
2018-02-21T11:17:12.719Z,29.67
2018-02-21T11:19:40.895Z,30.40
2018-02-21T11:22:09.064Z,28.70
2018-02-21T11:24:37.282Z,29.37
2018-02-21T11:27:05.497Z,29.13
2018-02-21T11:29:33.686Z,30.17
2018-02-21T11:32:01.854Z,28.83
2018-02-21T11:34:30.052Z,30.33
2018-02-21T11:36:58.254Z,29.33
2018-02-21T11:39:27.207Z,28.87
2018-02-21T11:41:55.377Z,30.90
2018-02-21T11:44:23.542Z,29.80
2018-02-21T11:46:51.749Z,28.93
2018-02-21T11:49:19.926Z,28.27
2018-02-21T11:51:48.101Z,28.60
2018-02-21T11:54:16.259Z,28.90
2018-02-21T11:56:44.424Z,27.93
2018-02-21T11:59:12.605Z,27.57
2018-02-21T12:01:40.817Z,26.13
2018-02-21T12:04:09.757Z,28.20
2018-02-21T12:06:37.937Z,28.07
2018-02-21T12:09:06.124Z,27.90
2018-02-21T12:11:34.320Z,29.67
2018-02-21T12:14:03.274Z,28.83
2018-02-21T12:16:31.477Z,28.70
2018-02-21T12:18:59.652Z,30.10
2018-02-21T12:21:27.858Z,30.00
2018-02-21T12:23:56.803Z,27.40
2018-02-21T12:26:24.958Z,29.43
2018-02-21T12:28:53.228Z,32.03
2018-02-21T12:31:21.434Z,35.80
2018-02-21T12:33:49.590Z,29.80
2018-02-21T12:36:17.757Z,29.20
2018-02-21T12:38:51.457Z,27.60
2018-02-21T12:41:25.133Z,30.03
2018-02-21T12:43:54.095Z,27.83
2018-02-21T12:46:22.301Z,29.80
2018-02-21T12:48:50.474Z,30.20
2018-02-21T12:51:19.417Z,28.07
2018-02-21T12:53:47.588Z,27.63
2018-02-21T12:56:15.769Z,28.90
2018-02-21T12:58:43.930Z,28.30
2018-02-21T13:01:12.126Z,27.03
2018-02-21T13:03:40.294Z,28.63
2018-02-21T13:06:08.462Z,30.27
2018-02-21T13:08:36.662Z,28.70
2018-02-21T13:11:04.825Z,30.30
2018-02-21T13:13:33.003Z,29.13
2018-02-21T13:16:01.166Z,27.70
2018-02-21T13:18:29.330Z,28.87
2018-02-21T13:20:57.521Z,30.40
2018-02-21T13:23:25.722Z,29.17
2018-02-21T13:25:54.688Z,28.20
2018-02-21T13:28:22.864Z,29.63
2018-02-21T13:30:51.035Z,28.50
2018-02-21T13:33:19.214Z,27.20
2018-02-21T13:35:47.388Z,34.73
2018-02-21T13:38:15.558Z,29.70
2018-02-21T13:40:43.731Z,32.97
2018-02-21T13:43:11.898Z,29.53
2018-02-21T13:45:40.095Z,27.57
2018-02-21T13:48:08.280Z,28.67
2018-02-21T13:50:37.219Z,28.10
2018-02-21T13:53:05.450Z,29.00
2018-02-21T13:55:34.423Z,30.30
2018-02-21T13:58:02.597Z,28.03
2018-02-21T14:00:30.764Z,28.20
2018-02-21T14:02:58.965Z,28.40
2018-02-21T14:05:27.930Z,27.90
2018-02-21T14:07:56.120Z,29.43
2018-02-21T14:10:24.307Z,28.63
2018-02-21T14:12:53.294Z,28.60
2018-02-21T14:15:21.492Z,28.07
2018-02-21T14:17:50.450Z,29.70
2018-02-21T14:20:18.657Z,28.93
2018-02-21T14:22:47.620Z,27.60
2018-02-21T14:25:15.827Z,28.60
2018-02-21T14:27:44.794Z,29.20
2018-02-21T14:30:12.984Z,29.40
2018-02-21T14:32:41.946Z,29.50
2018-02-21T14:35:10.123Z,29.20
2018-02-21T14:37:38.325Z,30.23
2018-02-21T14:40:07.332Z,25.50
2018-02-21T14:42:36.294Z,27.47
2018-02-21T14:45:04.492Z,26.10
2018-02-21T14:47:33.492Z,27.30
2018-02-21T14:50:02.436Z,27.03
2018-02-21T14:52:30.650Z,26.33
2018-02-21T14:54:59.595Z,25.07
2018-02-21T14:57:27.810Z,24.70
2018-02-21T14:59:56.008Z,25.97
2018-02-21T15:46:04.484Z,28.30
2018-02-21T15:48:32.699Z,30.83
2018-02-21T15:51:01.634Z,28.57
2018-02-21T15:53:29.808Z,28.60
2018-02-21T15:55:57.995Z,29.00
2018-02-21T15:58:26.178Z,33.03
2018-02-21T16:00:54.357Z,31.17
2018-02-21T16:03:22.530Z,29.40
2018-02-21T16:05:50.707Z,31.87
2018-02-21T16:08:18.867Z,30.50
2018-02-21T16:10:47.031Z,32.60
2018-02-21T16:13:15.191Z,31.20
2018-02-21T16:15:43.362Z,31.83
2018-02-21T16:18:11.572Z,33.13
2018-02-21T16:20:39.757Z,32.73
2018-02-21T16:23:07.931Z,29.13
2018-02-21T16:25:36.114Z,31.93
2018-02-21T16:28:04.278Z,32.73
2018-02-21T16:30:32.479Z,32.80
2018-02-21T16:33:01.426Z,32.90
2018-02-21T16:35:29.618Z,33.60
2018-02-21T16:37:57.782Z,33.43
2018-02-21T16:40:25.949Z,30.67
2018-02-21T16:42:54.160Z,32.33
2018-02-21T16:45:23.130Z,37.87
2018-02-21T16:47:51.349Z,35.37
2018-02-21T16:50:19.546Z,33.83
2018-02-21T16:52:47.789Z,32.60
2018-02-21T16:55:16.775Z,33.13
2018-02-21T16:57:45.731Z,33.37
2018-02-21T17:00:13.907Z,33.93
2018-02-21T17:02:42.133Z,34.03
2018-02-21T17:05:10.323Z,33.50
2018-02-21T17:07:38.497Z,32.03
2018-02-21T17:10:06.678Z,34.43
2018-02-21T17:12:34.882Z,39.47
2018-02-21T17:15:03.059Z,35.83
2018-02-21T17:17:31.278Z,37.50
2018-02-21T17:20:00.227Z,36.07
2018-02-21T17:22:28.440Z,35.73
2018-02-21T17:24:57.474Z,40.00
2018-02-21T17:27:25.659Z,38.57
2018-02-21T17:29:53.866Z,40.00
2018-02-21T17:32:22.057Z,36.87
2018-02-21T17:34:51.010Z,36.37
2018-02-21T17:37:19.187Z,40.00
2018-02-21T17:39:47.384Z,37.60
2018-02-21T17:42:15.556Z,36.83
2018-02-21T17:44:43.740Z,35.63
2018-02-21T17:47:11.960Z,39.37
2018-02-21T17:49:40.144Z,39.63
2018-02-21T17:52:08.337Z,36.30
2018-02-21T17:54:36.567Z,36.43
2018-02-21T17:57:04.765Z,39.87
2018-02-21T17:59:32.958Z,39.60
2018-02-21T18:02:01.141Z,37.37
2018-02-21T18:04:29.344Z,38.37
2018-02-21T18:06:57.521Z,41.53
2018-02-21T18:09:26.499Z,39.27
2018-02-21T18:11:54.691Z,39.10
2018-02-21T18:14:23.658Z,41.40
2018-02-21T18:16:51.851Z,40.13
2018-02-21T18:19:20.108Z,41.40
2018-02-21T18:21:50.578Z,38.67
2018-02-21T18:24:19.521Z,41.70
2018-02-21T18:26:47.709Z,40.83
2018-02-21T18:29:15.893Z,43.37
2018-02-21T18:31:44.092Z,43.10
2018-02-21T18:34:13.052Z,44.33
2018-02-21T18:36:41.331Z,46.73
2018-02-21T18:39:09.531Z,39.60
2018-02-21T18:41:38.491Z,42.83
2018-02-21T18:44:06.686Z,42.23
2018-02-21T18:46:34.907Z,43.60
2018-02-21T18:49:03.125Z,45.60
2018-02-21T18:51:31.316Z,48.63
2018-02-21T18:54:00.254Z,43.40
2018-02-21T18:56:28.447Z,45.10
2018-02-21T18:58:56.624Z,46.33
2018-02-21T19:01:24.849Z,46.73
2018-02-21T19:03:53.827Z,47.77
2018-02-21T19:06:22.785Z,51.60
2018-02-21T19:08:50.986Z,46.50
2018-02-21T19:11:19.252Z,45.07
2018-02-21T19:13:47.525Z,47.93
2018-02-21T19:16:15.755Z,46.73
2018-02-21T19:18:43.940Z,51.30
2018-02-21T19:21:12.163Z,44.33
2018-02-21T19:23:40.406Z,45.77
2018-02-21T19:26:08.640Z,47.70
2018-02-21T19:28:37.623Z,46.87
2018-02-21T19:31:06.622Z,47.50
2018-02-21T19:33:35.643Z,46.67
2018-02-21T19:36:03.826Z,49.80
2018-02-21T19:38:32.025Z,45.40
2018-02-21T19:41:00.221Z,45.57
2018-02-21T19:43:28.440Z,45.47
2018-02-21T19:45:56.621Z,44.40
2018-02-21T19:48:24.813Z,47.20
2018-02-21T19:50:53.003Z,45.80
2018-02-21T19:53:21.207Z,44.77
2018-02-21T19:55:50.148Z,46.13
2018-02-21T19:58:18.358Z,48.47
2018-02-21T20:00:46.536Z,52.33
2018-02-21T20:03:14.709Z,49.17
2018-02-21T20:05:42.887Z,48.87
2018-02-21T20:08:11.070Z,42.90
2018-02-21T20:10:39.242Z,45.73
2018-02-21T20:13:07.428Z,44.53
2018-02-21T20:15:36.380Z,46.53
2018-02-21T20:18:04.583Z,46.63
2018-02-21T20:20:32.777Z,43.30
2018-02-21T20:23:01.750Z,44.63
2018-02-21T20:25:29.923Z,46.53
2018-02-21T20:27:58.133Z,44.90
2018-02-21T20:30:26.316Z,48.30
2018-02-21T20:32:54.487Z,47.00
2018-02-21T20:35:22.679Z,45.20
2018-02-21T20:37:50.868Z,46.30
2018-02-21T20:40:19.078Z,46.17
2018-02-21T20:42:47.310Z,46.87
2018-02-21T20:45:15.518Z,47.70
2018-02-21T20:47:43.726Z,50.13
2018-02-21T20:50:11.933Z,48.20
2018-02-21T20:52:40.122Z,46.33
2018-02-21T20:55:08.293Z,47.57
2018-02-21T20:57:36.485Z,47.70
2018-02-21T21:00:04.668Z,50.03
2018-02-21T21:02:32.854Z,45.83
2018-02-21T21:05:01.039Z,47.30
2018-02-21T21:07:30.010Z,50.77
2018-02-21T21:09:58.225Z,47.20
2018-02-21T21:12:26.395Z,45.47
2018-02-21T21:14:55.379Z,48.60
2018-02-21T21:17:24.323Z,49.53
2018-02-21T21:19:52.521Z,49.77
2018-02-21T21:22:20.700Z,48.90
2018-02-21T21:24:48.912Z,48.77
2018-02-21T21:27:17.095Z,44.60
2018-02-21T21:29:45.307Z,48.47
2018-02-21T21:32:13.486Z,45.60
2018-02-21T21:34:41.656Z,49.57
2018-02-21T21:37:09.853Z,52.10
2018-02-21T21:39:38.018Z,48.00
2018-02-21T21:42:06.200Z,50.87
2018-02-21T21:44:34.380Z,51.33
2018-02-21T21:47:03.335Z,47.87
2018-02-21T21:49:32.869Z,50.50
2018-02-21T21:51:59.688Z,51.97
2018-02-21T21:54:27.863Z,52.57
2018-02-21T21:56:56.062Z,53.80
2018-02-21T21:59:24.245Z,54.63
2018-02-21T22:01:52.418Z,51.60
2018-02-21T22:04:20.604Z,53.70
2018-02-21T22:06:49.549Z,54.10
2018-02-21T22:09:17.713Z,52.90
2018-02-21T22:11:45.885Z,52.90
2018-02-21T22:14:14.070Z,51.33
2018-02-21T22:16:42.248Z,49.97
2018-02-21T22:19:10.456Z,56.43
2018-02-21T22:21:38.636Z,50.27
2018-02-21T22:24:06.804Z,54.57
2018-02-21T22:26:34.981Z,50.50
2018-02-21T22:29:03.161Z,58.10
2018-02-21T22:31:31.357Z,53.97
2018-02-21T22:33:59.522Z,52.63
2018-02-21T22:36:28.473Z,53.33
2018-02-21T22:38:56.635Z,53.20
2018-02-21T22:41:24.819Z,54.37
2018-02-21T22:43:52.986Z,57.00
2018-02-21T22:46:21.156Z,55.80
2018-02-21T22:48:49.325Z,51.23
2018-02-21T22:51:17.485Z,56.83
2018-02-21T22:53:45.666Z,54.60
2018-02-21T22:56:13.839Z,56.00
2018-02-21T22:58:42.009Z,57.87
2018-02-21T23:01:10.184Z,54.33
2018-02-21T23:03:38.355Z,51.40
2018-02-21T23:06:06.535Z,51.07
2018-02-21T23:08:34.738Z,50.53
2018-02-21T23:11:02.908Z,49.77
2018-02-21T23:13:32.075Z,51.70
2018-02-21T23:16:00.277Z,49.67
2018-02-21T23:18:28.464Z,53.17
2018-02-21T23:20:56.677Z,52.13
2018-02-21T23:23:25.663Z,49.23
2018-02-21T23:25:54.661Z,53.53
2018-02-21T23:28:23.602Z,53.50
2018-02-21T23:30:51.781Z,54.20
2018-02-21T23:33:19.975Z,56.90
2018-02-21T23:35:48.150Z,55.93
2018-02-21T23:38:16.335Z,59.07
2018-02-21T23:40:44.514Z,51.90
2018-02-21T23:43:12.694Z,55.63
2018-02-21T23:45:41.643Z,58.63
2018-02-21T23:48:09.862Z,56.43
2018-02-21T23:50:38.064Z,59.77
2018-02-21T23:53:06.243Z,52.47
2018-02-21T23:55:34.410Z,54.90
2018-02-21T23:58:03.374Z,53.17
